createdAt,value
2019-01-31T20:44:13.331Z,79.66
2019-01-31T20:46:48.963Z,79.50
2019-01-31T20:49:22.530Z,79.57
2019-01-31T20:51:58.382Z,79.77
2019-01-31T20:54:33.520Z,79.85
2019-01-31T20:57:06.814Z,80.09
2019-01-31T20:59:39.363Z,80.35
2019-01-31T21:02:12.135Z,80.21
2019-01-31T21:04:46.942Z,80.42
2019-01-31T21:07:22.278Z,80.54
2019-01-31T21:09:59.671Z,80.68
2019-01-31T21:12:35.316Z,80.73
2019-01-31T21:15:12.937Z,80.31
2019-01-31T21:17:44.666Z,80.08
2019-01-31T21:20:18.578Z,80.53
2019-01-31T21:22:52.360Z,80.97
2019-01-31T21:25:25.684Z,81.34
2019-01-31T21:27:57.138Z,81.33
2019-01-31T21:30:32.193Z,81.14
2019-01-31T21:33:06.355Z,80.87
2019-01-31T21:35:40.515Z,81.08
2019-01-31T21:38:14.853Z,81.09
2019-01-31T21:40:49.145Z,81.23
2019-01-31T21:43:23.171Z,81.45
2019-01-31T21:45:59.313Z,81.63
2019-01-31T21:48:44.758Z,81.31
2019-01-31T21:51:30.609Z,80.91
2019-01-31T21:54:16.820Z,80.87
2019-01-31T21:57:02.947Z,81.04
2019-01-31T21:59:46.960Z,80.73
2019-01-31T22:02:20.836Z,80.72
2019-01-31T22:05:07.080Z,80.72
2019-01-31T22:07:41.951Z,80.48
2019-01-31T22:10:18.469Z,80.57
2019-01-31T22:12:55.214Z,80.74
2019-01-31T22:15:33.727Z,80.29
2019-01-31T22:18:08.508Z,80.02
2019-01-31T22:20:42.941Z,79.65
2019-01-31T22:23:17.116Z,79.54
2019-01-31T22:25:51.535Z,79.70
2019-01-31T22:28:25.340Z,79.62
2019-01-31T22:30:59.762Z,79.36
2019-01-31T22:33:33.937Z,79.54
2019-01-31T22:36:08.009Z,79.30
2019-01-31T22:38:45.406Z,79.17
2019-01-31T22:41:18.459Z,79.30
2019-01-31T22:43:52.919Z,79.07
2019-01-31T22:46:27.066Z,79.12
2019-01-31T22:49:13.371Z,79.34
2019-01-31T22:51:58.114Z,79.51
2019-01-31T22:54:36.797Z,79.52
2019-01-31T22:57:10.783Z,79.43
2019-01-31T22:59:45.135Z,79.44
2019-01-31T23:02:19.356Z,79.12
2019-01-31T23:04:53.915Z,79.29
2019-01-31T23:07:28.291Z,79.32
2019-01-31T23:10:02.446Z,79.23
2019-01-31T23:12:50.048Z,79.29
2019-01-31T23:15:36.481Z,79.00
2019-01-31T23:18:20.038Z,79.23
2019-01-31T23:20:55.291Z,78.93
2019-01-31T23:23:29.069Z,78.86
2019-01-31T23:26:10.745Z,78.65
2019-01-31T23:28:44.813Z,78.79
2019-01-31T23:31:19.225Z,78.57
2019-01-31T23:33:53.533Z,78.84
2019-01-31T23:36:30.685Z,78.93
2019-01-31T23:39:06.472Z,78.68
2019-01-31T23:41:42.215Z,78.35
2019-01-31T23:44:17.363Z,78.03
2019-01-31T23:46:50.998Z,78.00
2019-01-31T23:49:25.526Z,78.32
2019-01-31T23:52:11.505Z,78.70
2019-01-31T23:54:55.149Z,78.81
2019-01-31T23:57:29.284Z,78.83
